createdAt,value
2023-04-05T00:01:31.279Z,99998.70
2023-04-05T00:04:00.531Z,99997.91
2023-04-05T00:06:29.784Z,100002.52
2023-04-05T00:08:59.933Z,99999.68
2023-04-05T00:11:29.614Z,99997.81
2023-04-05T00:13:59.289Z,99996.91
2023-04-05T00:16:27.433Z,99991.51
2023-04-05T00:18:59.980Z,99987.27
2023-04-05T00:21:30.005Z,99981.24
2023-04-05T00:23:58.863Z,99978.10
2023-04-05T00:26:27.114Z,99979.01
2023-04-05T00:28:57.709Z,99980.00
2023-04-05T00:31:25.857Z,99975.39
2023-04-05T00:33:53.741Z,99975.97
2023-04-05T00:36:21.811Z,99973.28
2023-04-05T00:38:50.057Z,99973.42
2023-04-05T00:41:18.358Z,99974.56
2023-04-05T00:43:47.178Z,99973.09
2023-04-05T00:46:17.922Z,99972.25
2023-04-05T00:48:47.013Z,99965.39
2023-04-05T00:51:15.288Z,99962.91
2023-04-05T00:53:45.908Z,99963.77
2023-04-05T00:56:14.331Z,99964.06
2023-04-05T00:58:52.450Z,99958.00
2023-04-05T01:04:09.304Z,99954.55
2023-04-05T01:07:05.356Z,99945.89
2023-04-05T01:09:53.573Z,99946.37
2023-04-05T01:12:23.326Z,99945.75
2023-04-05T01:14:54.028Z,99936.64
2023-04-05T01:17:23.637Z,99936.28
2023-04-05T01:19:53.458Z,99932.56
2023-04-05T01:22:43.552Z,99930.01
2023-04-05T01:25:36.965Z,99928.72
2023-04-05T01:28:30.853Z,99923.06
2023-04-05T01:31:13.638Z,99926.92
2023-04-05T01:34:31.398Z,99922.63
2023-04-05T01:37:05.321Z,99930.07
2023-04-05T01:39:33.154Z,99924.98
2023-04-05T01:42:01.812Z,99925.31
2023-04-05T01:44:29.717Z,99925.78
2023-04-05T01:46:57.798Z,99925.28
2023-04-05T01:49:26.006Z,99923.60
2023-04-05T01:51:54.181Z,99915.31
2023-04-05T01:54:22.257Z,99912.14
2023-04-05T01:56:50.583Z,99917.05
2023-04-05T01:59:19.822Z,99916.05
2023-04-05T02:01:47.615Z,99908.04
2023-04-05T02:04:16.629Z,99905.94
2023-04-05T02:06:48.212Z,99910.02
2023-04-05T02:09:16.300Z,99911.53
2023-04-05T02:11:46.658Z,99906.88
2023-04-05T02:14:24.998Z,99901.40
2023-04-05T02:16:56.495Z,99892.27
2023-04-05T02:19:26.279Z,99888.39
2023-04-05T02:21:57.228Z,99889.32
2023-04-05T02:24:26.164Z,99884.23
2023-04-05T02:26:53.759Z,99890.98
2023-04-05T02:29:21.466Z,99892.55
2023-04-05T02:31:50.589Z,99885.13
2023-04-05T02:34:18.663Z,99876.89
2023-04-05T02:36:47.194Z,99880.84
2023-04-05T02:39:15.122Z,99880.47
2023-04-05T02:41:44.244Z,99878.36
2023-04-05T02:44:12.992Z,99878.83
2023-04-05T02:46:41.193Z,99875.02
2023-04-05T02:49:08.869Z,99868.92
2023-04-05T02:51:36.966Z,99863.63
2023-04-05T02:54:08.179Z,99868.39
2023-04-05T02:56:37.383Z,99859.11
2023-04-05T02:59:10.799Z,99855.05
2023-04-05T03:01:44.457Z,99839.19
2023-04-05T03:04:19.104Z,99833.36
2023-04-05T03:06:50.890Z,99835.47
2023-04-05T03:09:23.180Z,99850.34
2023-04-05T03:11:53.980Z,99855.90
2023-04-05T03:14:26.213Z,99853.77
2023-04-05T03:16:54.343Z,99851.88
2023-04-05T03:19:29.841Z,99847.55
2023-04-05T03:22:05.765Z,99842.67
2023-04-05T03:24:35.718Z,99837.19
2023-04-05T03:27:06.038Z,99837.82
2023-04-05T03:29:42.862Z,99836.79
2023-04-05T03:32:17.024Z,99836.58
2023-04-05T03:34:51.369Z,99840.69
2023-04-05T03:37:19.453Z,99843.70
2023-04-05T03:39:53.070Z,99846.63
2023-04-05T03:42:21.203Z,99849.80
2023-04-05T03:44:52.452Z,99849.84
2023-04-05T03:47:21.001Z,99847.71
2023-04-05T03:49:49.084Z,99842.15
2023-04-05T03:52:17.075Z,99845.58
2023-04-05T03:54:46.309Z,99847.66
2023-04-05T03:57:16.253Z,99849.77
2023-04-05T03:59:47.166Z,99851.27
2023-04-05T12:09:22.246Z,99746.45
2023-04-05T12:11:56.933Z,99740.83
2023-04-05T12:14:26.291Z,99734.75
2023-04-05T12:16:55.086Z,99734.90
2023-04-05T12:19:30.465Z,99727.11
2023-04-05T12:21:59.309Z,99726.52
2023-04-05T12:24:28.119Z,99728.71
2023-04-05T12:26:59.888Z,99727.63
2023-04-05T12:29:30.151Z,99726.66
2023-04-05T12:31:59.529Z,99728.56
2023-04-05T12:34:28.460Z,99732.08
2023-04-05T12:36:57.636Z,99727.72
2023-04-05T12:39:26.346Z,99728.94
2023-04-05T12:42:01.600Z,99727.20
2023-04-05T12:44:31.668Z,99716.77
2023-04-05T12:47:05.637Z,99715.79
2023-04-05T12:49:38.577Z,99714.14
2023-04-05T12:52:07.512Z,99714.59
2023-04-05T12:54:37.473Z,99711.41
2023-04-05T12:57:09.377Z,99705.00
2023-04-05T12:59:39.192Z,99703.93
2023-04-05T13:02:08.182Z,99709.19
2023-04-05T13:04:37.123Z,99706.54
2023-04-05T13:07:05.907Z,99708.45
2023-04-05T13:09:37.452Z,99707.41
2023-04-05T13:12:07.034Z,99705.58
2023-04-05T13:14:36.330Z,99696.73
2023-04-05T13:17:05.550Z,99696.80
2023-04-05T13:19:34.339Z,99701.04
2023-04-05T13:22:03.539Z,99701.31
2023-04-05T13:24:32.408Z,99699.77
2023-04-05T13:27:01.564Z,99697.30
2023-04-05T13:29:30.840Z,99691.40
2023-04-05T13:31:59.805Z,99687.44
2023-04-05T13:34:29.932Z,99684.28
2023-04-05T13:36:58.828Z,99693.91
2023-04-05T13:39:29.216Z,99686.48
2023-04-05T13:41:58.117Z,99688.55
2023-04-05T13:44:27.003Z,99687.18
2023-04-05T13:46:56.133Z,99688.59
2023-04-05T13:49:24.977Z,99683.30
2023-04-05T13:51:53.777Z,99692.40
2023-04-05T13:54:22.766Z,99686.86
2023-04-05T13:56:59.648Z,99687.55
2023-04-05T13:59:29.435Z,99685.95
2023-04-05T14:01:58.452Z,99679.59
2023-04-05T14:04:28.848Z,99681.12
2023-04-05T14:06:58.206Z,99668.30
2023-04-05T14:09:27.604Z,99666.97
2023-04-05T14:12:02.989Z,99669.08
2023-04-05T14:14:32.136Z,99666.84
2023-04-05T14:17:08.100Z,99667.55
2023-04-05T14:19:41.515Z,99668.36
2023-04-05T14:22:10.646Z,99669.80
2023-04-05T14:24:39.558Z,99667.48
2023-04-05T14:27:08.517Z,99670.58
2023-04-05T14:29:37.365Z,99666.17
2023-04-05T14:32:06.523Z,99669.45
2023-04-05T14:34:36.893Z,99675.25
2023-04-05T14:37:06.995Z,99673.16
2023-04-05T14:39:36.212Z,99669.37
2023-04-05T14:42:05.312Z,99671.84
2023-04-05T14:44:35.017Z,99672.09
2023-04-05T14:47:04.322Z,99672.77
2023-04-05T14:49:33.218Z,99671.16
2023-04-05T14:52:02.849Z,99668.95
2023-04-05T14:54:32.227Z,99663.97
2023-04-05T14:57:01.655Z,99665.95
2023-04-05T14:59:32.190Z,99669.28
2023-04-05T15:02:01.551Z,99676.03
2023-04-05T15:04:31.542Z,99685.04
2023-04-05T15:07:01.098Z,99685.88
2023-04-05T15:09:30.398Z,99690.05
2023-04-05T15:12:03.216Z,99693.55
2023-04-05T15:14:32.681Z,99698.41
2023-04-05T15:17:02.078Z,99696.39
2023-04-05T15:19:32.134Z,99690.65
2023-04-05T15:22:01.137Z,99687.06
2023-04-05T15:24:31.007Z,99690.44
2023-04-05T15:27:03.109Z,99689.33
2023-04-05T15:29:35.658Z,99679.16
2023-04-05T15:32:05.921Z,99680.80
2023-04-05T15:34:34.846Z,99676.30
2023-04-05T15:37:05.288Z,99679.78
2023-04-05T15:39:34.436Z,99679.38
2023-04-05T15:42:04.011Z,99685.04
2023-04-05T15:44:35.376Z,99681.42
2023-04-05T15:47:04.489Z,99681.23
2023-04-05T15:49:34.301Z,99683.94
2023-04-05T15:52:03.517Z,99678.50
2023-04-05T15:54:32.482Z,99676.36
2023-04-05T15:57:02.433Z,99678.21
2023-04-05T15:59:31.572Z,99681.02
2023-04-05T16:02:00.976Z,99671.91
2023-04-05T16:04:30.582Z,99675.80
2023-04-05T16:07:00.282Z,99682.86
2023-04-05T16:09:30.557Z,99686.11
2023-04-05T16:12:00.032Z,99691.19
2023-04-05T16:14:33.757Z,99681.44
2023-04-05T16:17:03.155Z,99684.60
2023-04-05T16:19:32.387Z,99688.55
2023-04-05T16:22:03.883Z,99689.02
2023-04-05T16:24:33.720Z,99691.05
2023-04-05T16:27:03.107Z,99683.91
2023-04-05T16:29:32.677Z,99685.54
2023-04-05T16:32:01.575Z,99686.54
2023-04-05T16:34:31.594Z,99693.39
2023-04-05T16:37:01.149Z,99687.25
2023-04-05T16:39:30.597Z,99687.86
2023-04-05T16:42:00.510Z,99687.98
2023-04-05T16:44:32.076Z,99679.27
2023-04-05T16:47:01.872Z,99676.95
2023-04-05T16:49:31.219Z,99672.80
2023-04-05T16:52:02.502Z,99676.58
2023-04-05T16:54:32.073Z,99690.59
2023-04-05T16:57:05.001Z,99696.55
2023-04-05T16:59:35.012Z,99696.44
2023-04-05T17:02:04.124Z,99697.61
2023-04-05T17:04:34.906Z,99707.59
2023-04-05T17:07:05.159Z,99707.23
2023-04-05T17:09:34.413Z,99718.36
2023-04-05T17:12:04.637Z,99725.42
2023-04-05T17:14:34.510Z,99727.08
2023-04-05T17:17:03.475Z,99723.89
2023-04-05T17:19:32.888Z,99725.42
2023-04-05T17:22:02.132Z,99728.62
2023-04-05T17:24:37.958Z,99720.69
2023-04-05T17:27:07.114Z,99724.21
2023-04-05T17:29:36.236Z,99721.48
2023-04-05T17:32:05.751Z,99714.83
2023-04-05T17:34:35.280Z,99714.99
2023-04-05T17:37:04.734Z,99712.17
2023-04-05T17:39:33.674Z,99711.59
2023-04-05T17:42:02.562Z,99718.77
2023-04-05T17:44:33.051Z,99719.02
2023-04-05T17:47:09.182Z,99713.03
2023-04-05T17:49:39.187Z,99712.75
2023-04-05T17:52:12.679Z,99719.92
2023-04-05T17:54:42.435Z,99713.98
2023-04-05T17:57:16.051Z,99717.20
2023-04-05T17:59:45.559Z,99713.63
2023-04-05T18:02:15.322Z,99721.81
2023-04-05T18:04:45.397Z,99719.92
2023-04-05T18:07:14.323Z,99717.48
2023-04-05T18:09:43.756Z,99714.61
2023-04-05T18:12:12.820Z,99707.83
2023-04-05T18:14:42.309Z,99710.73
2023-04-05T18:17:12.661Z,99706.32
2023-04-05T18:19:41.885Z,99709.05
2023-04-05T18:22:11.718Z,99709.39
2023-04-05T18:24:40.911Z,99708.77
2023-04-05T18:27:11.190Z,99704.19
2023-04-05T18:29:46.624Z,99703.88
2023-04-05T18:32:16.610Z,99707.12
2023-04-05T18:34:46.048Z,99706.27
2023-04-05T18:37:16.776Z,99699.12
2023-04-05T18:39:46.157Z,99699.09
2023-04-05T18:42:15.351Z,99691.20
2023-04-05T18:44:46.106Z,99686.23
2023-04-05T18:47:16.146Z,99681.08
2023-04-05T18:49:46.522Z,99680.27
2023-04-05T18:52:17.748Z,99675.20
2023-04-05T18:54:50.129Z,99671.88
2023-04-05T18:57:20.231Z,99667.98
2023-04-05T18:59:49.672Z,99669.80
2023-04-05T19:02:18.928Z,99664.24
2023-04-05T19:04:48.507Z,99660.30
2023-04-05T19:07:17.707Z,99657.11
2023-04-05T19:09:47.914Z,99656.23
2023-04-05T19:12:17.155Z,99659.89
2023-04-05T19:14:48.569Z,99653.00
2023-04-05T19:17:17.673Z,99654.20
2023-04-05T19:19:49.088Z,99654.83
2023-04-05T19:22:19.684Z,99650.38
2023-04-05T19:24:48.988Z,99647.52
2023-04-05T19:27:23.391Z,99646.05
2023-04-05T19:29:52.781Z,99646.73
2023-04-05T19:32:23.440Z,99641.07
2023-04-05T19:34:53.251Z,99642.31
2023-04-05T19:37:23.329Z,99638.45
2023-04-05T19:39:52.700Z,99631.23
2023-04-05T19:42:22.170Z,99632.21
2023-04-05T19:44:52.827Z,99632.17
2023-04-05T19:47:26.905Z,99623.78
2023-04-05T19:50:01.049Z,99628.92
2023-04-05T19:52:40.889Z,99625.80
2023-04-05T19:55:29.235Z,99622.59
2023-04-05T19:57:59.284Z,99625.48
2023-04-05T20:00:36.582Z,99618.20
2023-04-05T20:03:22.288Z,99620.02
2023-04-05T20:05:56.511Z,99615.98
2023-04-05T20:08:26.101Z,99609.32
2023-04-05T20:10:55.645Z,99612.41
2023-04-05T20:13:30.369Z,99612.41
2023-04-05T20:15:59.630Z,99605.59
2023-04-05T20:18:29.468Z,99611.39
2023-04-05T20:21:00.514Z,99605.85
2023-04-05T20:23:30.144Z,99609.86
2023-04-05T20:25:59.488Z,99605.27
2023-04-05T20:28:36.469Z,99600.39
2023-04-05T20:31:35.899Z,99594.45
2023-04-05T20:34:13.393Z,99594.55
2023-04-05T20:36:49.359Z,99587.55
2023-04-05T20:39:23.952Z,99590.17
2023-04-05T20:41:53.201Z,99589.38
2023-04-05T20:44:24.942Z,99585.04
2023-04-05T20:46:56.541Z,99585.11
2023-04-05T20:49:28.535Z,99579.66
2023-04-05T20:52:01.118Z,99570.15
2023-04-05T20:54:30.795Z,99564.16
2023-04-05T20:56:59.934Z,99563.09
2023-04-05T20:59:28.917Z,99565.27
2023-04-05T21:01:57.997Z,99558.08
2023-04-05T21:04:29.893Z,99555.18
2023-04-05T21:06:59.216Z,99546.32
2023-04-05T21:09:28.299Z,99551.37
2023-04-05T21:11:57.700Z,99552.20
2023-04-05T21:14:28.334Z,99550.27
2023-04-05T21:16:57.237Z,99543.52
2023-04-05T21:19:26.321Z,99543.58
2023-04-05T21:21:55.115Z,99547.45
2023-04-05T21:24:23.997Z,99536.54
2023-04-05T21:26:52.888Z,99536.07
2023-04-05T21:29:23.963Z,99539.36
2023-04-05T21:31:52.967Z,99539.69
2023-04-05T21:34:22.124Z,99536.23
2023-04-05T21:36:57.041Z,99540.35
2023-04-05T21:39:26.874Z,99538.30
2023-04-05T21:41:55.713Z,99533.61
2023-04-05T21:44:26.167Z,99536.89
2023-04-05T21:46:55.404Z,99534.61
2023-04-05T21:49:25.354Z,99540.58
2023-04-05T21:51:54.534Z,99541.27
2023-04-05T21:54:23.512Z,99540.02
2023-04-05T21:56:56.826Z,99537.02
2023-04-05T21:59:26.046Z,99539.70
2023-04-05T22:01:57.722Z,99537.42
2023-04-05T22:04:27.608Z,99536.27
2023-04-05T22:06:56.740Z,99535.07
2023-04-05T22:09:26.036Z,99533.02
2023-04-05T22:11:57.557Z,99529.65
2023-04-05T22:14:26.930Z,99532.23
2023-04-05T22:16:56.996Z,99528.83
2023-04-05T22:19:32.595Z,99525.56
2023-04-05T22:22:02.447Z,99525.90
2023-04-05T22:24:31.705Z,99519.43
2023-04-05T22:27:01.363Z,99524.15
2023-04-05T22:29:30.751Z,99518.80
2023-04-05T22:32:00.495Z,99520.73
2023-04-05T22:34:30.372Z,99518.92
2023-04-05T22:37:00.460Z,99517.09
2023-04-05T22:39:29.554Z,99513.55
2023-04-05T22:41:58.766Z,99515.29
2023-04-05T22:44:27.621Z,99513.70
2023-04-05T22:46:56.514Z,99509.93
2023-04-05T22:49:26.745Z,99511.52
2023-04-05T22:51:55.637Z,99509.52
2023-04-05T22:54:24.528Z,99506.09
2023-04-05T22:56:53.586Z,99502.17
2023-04-05T22:59:23.581Z,99502.00
2023-04-05T23:01:55.085Z,99500.14
2023-04-05T23:04:24.794Z,99501.81
2023-04-05T23:06:53.987Z,99497.80
2023-04-05T23:09:24.273Z,99504.81
2023-04-05T23:11:54.522Z,99500.77
2023-04-05T23:14:23.345Z,99499.64
2023-04-05T23:16:52.194Z,99499.30
2023-04-05T23:19:21.820Z,99503.14
2023-04-05T23:21:52.956Z,99501.42
2023-04-05T23:24:21.829Z,99497.91
2023-04-05T23:26:50.721Z,99497.29
2023-04-05T23:29:26.603Z,99496.00
2023-04-05T23:31:55.750Z,99498.83
2023-04-05T23:34:24.855Z,99496.66
2023-04-05T23:36:56.850Z,99496.71
2023-04-05T23:39:26.559Z,99500.02
2023-04-05T23:41:59.095Z,99501.35
2023-04-05T23:44:28.070Z,99502.68
2023-04-05T23:46:59.452Z,99500.08
2023-04-05T23:49:28.650Z,99495.39
2023-04-05T23:51:57.653Z,99495.52
2023-04-05T23:54:31.074Z,99493.44
2023-04-05T23:57:00.450Z,99488.45
2023-04-05T23:59:29.787Z,99480.76
